Time;durP1;ratioP1;P1;durP2;ratioP2;P2;SDS_P1;SDS_P2;PMS_P1;PMS_P2;Temp;Humidity;BMP_temperature;BMP_pressure;BME280_temperature;BME280_humidity;BME280_pressure;Samples;Min_cycle;Max_cycle;Signal;HPM_P1;HPM_P2
2023/06/01 04:50:58;;;;;;;2.63;2.42;;;23.20;39.80;;;;;;5569036;23;20781;-71
2023/06/01 04:53:26;;;;;;;2.83;2.63;;;23.10;38.30;;;;;;4917157;29;20724;-72
2023/06/01 04:55:53;;;;;;;2.58;2.38;;;23.10;37.60;;;;;;4917389;29;20311;-73
2023/06/01 04:58:20;;;;;;;2.95;2.75;;;23.10;38.50;;;;;;4917077;29;20212;-72
2023/06/01 05:00:47;;;;;;;3.00;2.58;;;23.50;40.10;;;;;;4916776;29;20569;-72
2023/06/01 05:03:14;;;;;;;2.65;2.45;;;24.00;38.00;;;;;;4917725;29;20249;-72
2023/06/01 05:05:41;;;;;;;2.65;2.45;;;25.00;37.80;;;;;;4917247;29;20260;-72
2023/06/01 05:08:09;;;;;;;2.35;2.22;;;26.10;34.20;;;;;;4917342;29;20204;-71
2023/06/01 05:10:35;;;;;;;3.15;2.70;;;26.70;30.00;;;;;;4917062;29;20304;-71
2023/06/01 05:13:02;;;;;;;2.88;2.67;;;27.40;29.30;;;;;;4916486;29;20322;-70
2023/06/01 05:15:30;;;;;;;3.50;3.00;;;28.10;28.40;;;;;;4916707;29;20204;-70
2023/06/01 05:17:57;;;;;;;3.17;2.90;;;28.10;25.80;;;;;;4917009;29;20220;-69
2023/06/01 05:20:23;;;;;;;3.70;2.95;;;28.20;25.30;;;;;;4916562;29;20236;-69
2023/06/01 05:22:50;;;;;;;3.10;2.80;;;28.30;27.10;;;;;;4916368;29;20668;-70
2023/06/01 05:25:18;;;;;;;2.83;2.63;;;28.30;25.50;;;;;;4916627;29;20212;-70
2023/06/01 05:27:45;;;;;;;3.40;3.10;;;28.50;24.60;;;;;;4916617;29;20201;-69
2023/06/01 05:30:13;;;;;;;2.83;2.63;;;28.50;24.80;;;;;;4916938;29;20236;-70
2023/06/01 05:32:39;;;;;;;2.70;2.50;;;28.80;24.40;;;;;;4917816;29;20205;-70
2023/06/01 05:35:07;;;;;;;2.70;2.50;;;28.90;25.20;;;;;;4920214;29;20648;-70
2023/06/01 05:37:34;;;;;;;2.30;2.10;;;29.40;24.70;;;;;;4920075;29;20230;-69
2023/06/01 05:40:00;;;;;;;3.63;2.50;;;30.30;23.10;;;;;;4920019;29;20225;-69
2023/06/01 05:42:28;;;;;;;3.28;2.88;;;31.00;23.20;;;;;;4920163;29;20208;-69
2023/06/01 05:44:55;;;;;;;4.43;2.55;;;30.90;21.60;;;;;;4921174;29;20204;-70
2023/06/01 05:47:22;;;;;;;3.47;3.13;;;30.90;22.50;;;;;;4920859;29;20676;-70
2023/06/01 05:49:48;;;;;;;3.33;2.55;;;30.50;22.10;;;;;;4920868;29;20576;-70
2023/06/01 05:52:15;;;;;;;2.75;2.55;;;30.60;23.30;;;;;;4921060;29;20211;-70
2023/06/01 05:54:42;;;;;;;2.67;2.47;;;30.90;22.90;;;;;;4920388;29;20201;-70
2023/06/01 05:57:09;;;;;;;3.28;3.08;;;31.50;21.50;;;;;;4920019;29;20235;-70
2023/06/01 05:59:37;;;;;;;3.50;3.10;;;31.70;21.20;;;;;;4919851;29;20672;-71
2023/06/01 06:02:04;;;;;;;3.45;2.83;;;31.40;22.00;;;;;;4919816;29;20576;-70
2023/06/01 06:04:31;;;;;;;2.45;2.25;;;31.60;21.50;;;;;;4919807;29;20209;-70
2023/06/01 06:06:57;;;;;;;2.75;2.55;;;32.20;21.80;;;;;;4920043;29;20208;-70
2023/06/01 06:09:25;;;;;;;3.03;2.38;;;32.20;21.50;;;;;;4919864;29;20216;-70
2023/06/01 06:11:52;;;;;;;3.08;2.50;;;32.70;21.80;;;;;;4919732;29;20225;-70
2023/06/01 06:14:18;;;;;;;2.97;2.70;;;33.40;22.20;;;;;;4919522;29;20675;-70
2023/06/01 06:16:46;;;;;;;2.42;2.30;;;33.70;21.80;;;;;;4919534;29;20637;-69
2023/06/01 06:19:15;;;;;;;2.85;2.65;;;34.00;21.20;;;;;;4919766;29;20212;-69
2023/06/01 06:21:42;;;;;;;4.05;2.35;;;33.80;22.10;;;;;;4919919;29;20247;-69
2023/06/01 06:24:09;;;;;;;2.60;2.30;;;33.90;20.60;;;;;;4920458;29;20201;-69
2023/06/01 06:26:36;;;;;;;2.30;2.20;;;34.40;21.80;;;;;;4920030;29;20204;-69
2023/06/01 06:29:03;;;;;;;2.72;2.22;;;34.80;21.10;;;;;;4919955;29;20233;-70
2023/06/01 06:31:29;;;;;;;2.90;2.70;;;34.60;22.90;;;;;;4920956;29;20309;-69
2023/06/01 06:33:57;;;;;;;3.67;2.83;;;35.00;23.10;;;;;;4920450;29;20204;-70
2023/06/01 06:36:24;;;;;;;2.95;2.75;;;35.40;21.80;;;;;;4919677;29;20221;-70
2023/06/01 06:38:51;;;;;;;4.72;2.70;;;35.10;22.40;;;;;;4919842;29;20858;-70
2023/06/01 06:41:18;;;;;;;3.58;2.90;;;35.30;22.60;;;;;;4922850;29;20231;-70
2023/06/01 06:43:46;;;;;;;4.85;2.97;;;35.90;23.00;;;;;;4919568;29;20334;-69
2023/06/01 06:46:13;;;;;;;3.05;2.80;;;36.50;22.60;;;;;;4921564;29;20231;-70
2023/06/01 06:48:39;;;;;;;2.78;2.58;;;36.50;23.80;;;;;;4920638;29;20275;-70
2023/06/01 06:51:07;;;;;;;3.28;2.58;;;36.70;24.70;;;;;;4918980;29;20229;-70
2023/06/01 06:53:34;;;;;;;3.45;3.15;;;36.70;25.20;;;;;;4919214;29;20284;-70
2023/06/01 06:56:00;;;;;;;;;;;35.60;25.80;;;;;;4920047;29;20241;-70
2023/06/01 06:58:28;;;;;;;2.88;2.67;;;35.10;26.30;;;;;;4918896;29;20880;-70
2023/06/01 07:00:54;;;;;;;3.22;3.00;;;34.70;27.50;;;;;;4919969;29;20227;-70
2023/06/01 07:03:21;;;;;;;2.92;2.63;;;35.00;26.20;;;;;;4919620;29;20678;-70
2023/06/01 07:05:48;;;;;;;3.20;2.83;;;34.50;27.10;;;;;;4918990;29;20235;-70
2023/06/01 07:08:17;;;;;;;2.17;2.13;;;34.60;27.40;;;;;;4919171;29;20201;-70
2023/06/01 07:10:43;;;;;;;6.75;2.80;;;35.30;28.00;;;;;;4918813;29;20221;-70
2023/06/01 07:13:10;;;;;;;5.28;3.40;;;35.60;27.80;;;;;;4918796;29;20209;-69
2023/06/01 07:15:37;;;;;;;3.92;2.58;;;34.90;27.50;;;;;;4918642;29;20273;-69
2023/06/01 07:18:03;;;;;;;3.97;2.63;;;34.80;27.80;;;;;;4918577;29;20243;-69
2023/06/01 07:20:30;;;;;;;2.90;2.70;;;34.60;28.60;;;;;;4918206;29;20752;-69
2023/06/01 07:22:57;;;;;;;3.15;2.95;;;35.10;28.20;;;;;;4918630;29;20205;-69
2023/06/01 07:25:25;;;;;;;3.78;2.85;;;35.10;28.50;;;;;;4918166;29;20205;-70
2023/06/01 07:27:52;;;;;;;2.92;2.72;;;35.40;27.60;;;;;;4918152;29;20659;-69
2023/06/01 07:30:19;;;;;;;3.05;2.85;;;35.20;27.50;;;;;;4918254;29;20231;-69
2023/06/01 07:32:45;;;;;;;3.40;3.10;;;35.60;27.60;;;;;;4918253;29;20204;-70
2023/06/01 07:35:12;;;;;;;5.00;3.53;;;35.00;28.20;;;;;;4918192;29;20675;-69
2023/06/01 07:37:39;;;;;;;;;;;34.60;27.60;;;;;;4918577;29;20228;-69
2023/06/01 07:40:06;;;;;;;;;;;34.00;28.70;;;;;;4918468;29;19931;-69
2023/06/01 07:42:34;;;;;;;;;;;34.30;29.00;;;;;;4918290;29;20347;-68
2023/06/01 07:45:02;;;;;;;;;;;35.10;28.30;;;;;;4919053;29;19974;-69
2023/06/01 07:47:28;;;;;;;;;;;36.00;27.90;;;;;;4918236;29;20394;-68
2023/06/01 07:49:55;;;;;;;;;;;36.20;27.60;;;;;;4918561;29;19927;-68
2023/06/01 07:52:21;;;;;;;;;;;36.00;27.80;;;;;;4918358;29;19931;-68
2023/06/01 07:54:49;;;;;;;;;;;36.10;27.90;;;;;;4917993;29;19923;-68
2023/06/01 07:57:16;;;;;;;;;;;36.10;26.00;;;;;;4918203;29;19971;-68
2023/06/01 07:59:44;;;;;;;;;;;35.90;26.30;;;;;;4918334;29;19926;-69
2023/06/01 08:02:11;;;;;;;;;;;35.80;26.40;;;;;;4918222;29;19923;-69
2023/06/01 08:04:38;;;;;;;;;;;35.20;25.40;;;;;;4918278;29;19923;-69
2023/06/01 08:07:06;;;;;;;;;;;34.40;26.20;;;;;;4918232;29;19927;-70
2023/06/01 08:09:33;;;;;;;2.90;2.67;;;33.00;27.00;;;;;;4917395;29;20812;-70
2023/06/01 08:12:00;;;;;;;2.97;2.65;;;31.90;28.00;;;;;;4917593;29;20221;-69
2023/06/01 08:14:27;;;;;;;3.17;2.97;;;30.50;28.80;;;;;;4917457;29;20209;-69
2023/06/01 08:16:55;;;;;;;3.03;2.88;;;28.80;29.80;;;;;;4917529;29;20208;-69
2023/06/01 08:19:22;;;;;;;6.50;3.75;;;27.70;31.00;;;;;;4917529;29;20260;-69
2023/06/01 08:21:49;;;;;;;6.07;3.40;;;27.10;32.30;;;;;;4917462;29;20229;-69
2023/06/01 08:24:16;;;;;;;4.70;3.63;;;26.60;32.00;;;;;;4917696;29;20208;-69
2023/06/01 08:26:43;;;;;;;4.05;3.67;;;26.10;31.20;;;;;;4917541;29;20216;-69
2023/06/01 08:29:10;;;;;;;3.22;3.00;;;25.60;31.30;;;;;;4917442;29;20212;-69
2023/06/01 08:31:38;;;;;;;4.13;3.75;;;25.10;31.60;;;;;;4917382;29;20225;-69
2023/06/01 08:34:06;;;;;;;5.35;3.63;;;24.70;33.30;;;;;;4917375;29;20217;-69
2023/06/01 08:36:32;;;;;;;6.97;3.55;;;24.50;33.50;;;;;;4917354;29;20241;-70
2023/06/01 08:38:59;;;;;;;4.18;3.35;;;24.10;33.50;;;;;;4917210;29;20225;-70
2023/06/01 08:41:35;;;;;;;4.18;3.50;;;23.90;34.70;;;;;;4917242;29;20220;-70
2023/06/01 08:44:06;;;;;;;4.10;3.70;;;23.70;35.10;;;;;;4916896;29;20197;-70
2023/06/01 08:46:34;;;;;;;4.57;3.80;;;23.70;37.00;;;;;;4916951;29;20683;-69
2023/06/01 08:49:01;;;;;;;3.97;3.63;;;23.70;35.40;;;;;;4917161;29;20200;-69
2023/06/01 08:51:33;;;;;;;3.88;3.58;;;23.50;36.30;;;;;;4917019;29;20225;-69
2023/06/01 08:54:03;;;;;;;5.45;3.72;;;23.50;36.40;;;;;;4917100;29;20212;-69
2023/06/01 08:56:30;;;;;;;4.00;3.40;;;23.40;36.40;;;;;;4917160;29;20205;-69
2023/06/01 08:58:57;;;;;;;4.25;3.92;;;23.30;36.20;;;;;;4916817;29;20224;-69
2023/06/01 09:01:25;;;;;;;4.72;3.65;;;23.20;37.10;;;;;;4917028;29;20235;-69
2023/06/01 09:03:52;;;;;;;7.22;4.05;;;23.20;37.00;;;;;;4917785;29;20226;-70
2023/06/01 09:06:19;;;;;;;5.28;4.15;;;23.10;37.50;;;;;;4917003;29;20209;-70
2023/06/01 09:08:47;;;;;;;4.10;3.80;;;23.10;37.70;;;;;;4920228;29;20207;-70
2023/06/01 09:11:14;;;;;;;3.85;3.50;;;23.10;37.10;;;;;;4922330;29;20220;-70
2023/06/01 09:13:42;;;;;;;3.58;3.28;;;23.10;37.10;;;;;;4921778;29;20211;-70
2023/06/01 09:16:10;;;;;;;3.63;3.33;;;23.20;37.30;;;;;;4920616;29;20668;-69
2023/06/01 09:18:36;;;;;;;3.50;3.20;;;23.20;37.20;;;;;;4920711;29;20224;-69
2023/06/01 09:21:13;;;;;;;5.47;3.58;;;23.20;38.20;;;;;;4920355;29;20716;-70
2023/06/01 09:23:42;;;;;;;4.40;4.00;;;23.10;38.70;;;;;;4920666;29;20204;-69
2023/06/01 09:26:11;;;;;;;6.60;3.47;;;23.10;39.40;;;;;;4920667;29;20684;-69
2023/06/01 09:29:00;;;;;;;5.25;3.92;;;23.10;37.10;;;;;;4920445;29;20556;-69
2023/06/01 09:31:36;;;;;;;4.03;3.72;;;23.00;36.80;;;;;;4916029;29;20232;-70
2023/06/01 09:34:04;;;;;;;4.18;3.78;;;22.90;36.40;;;;;;4920243;29;20579;-70
2023/06/01 09:36:31;;;;;;;3.90;3.60;;;22.90;37.70;;;;;;4920321;29;20661;-70
2023/06/01 09:39:02;;;;;;;5.47;3.30;;;23.00;38.10;;;;;;4920028;29;20673;-71
2023/06/01 09:41:45;;;;;;;4.30;3.90;;;23.00;37.90;;;;;;4919911;29;20729;-71
2023/06/01 09:44:12;;;;;;;4.15;3.50;;;22.90;38.20;;;;;;4920346;29;20260;-71
2023/06/01 09:46:47;;;;;;;5.13;4.63;;;22.90;38.40;;;;;;4920323;29;20290;-71
2023/06/01 09:49:19;;;;;;;4.43;3.67;;;22.90;38.60;;;;;;4921026;29;20483;-71
2023/06/01 09:51:46;;;;;;;3.67;3.38;;;23.10;39.70;;;;;;4920531;29;20264;-71
2023/06/01 09:54:23;;;;;;;4.03;3.47;;;23.20;38.00;;;;;;4920184;29;20212;-71
2023/06/01 09:56:51;;;;;;;3.58;3.30;;;23.40;37.50;;;;;;4920414;29;20233;-71
2023/06/01 09:59:18;;;;;;;5.65;3.97;;;23.50;37.40;;;;;;4920024;29;20225;-71
2023/06/01 10:01:47;;;;;;;4.50;3.08;;;23.50;37.10;;;;;;4920002;29;20232;-71
2023/06/01 10:04:18;;;;;;;4.72;3.53;;;23.70;36.30;;;;;;4920427;29;20209;-71
2023/06/01 10:06:45;;;;;;;3.80;3.53;;;23.90;37.80;;;;;;4920663;29;20193;-71
2023/06/01 10:09:15;;;;;;;3.95;3.65;;;24.10;36.10;;;;;;4920635;29;20197;-71
2023/06/01 10:11:42;;;;;;;3.80;3.30;;;24.20;35.70;;;;;;4920546;29;20276;-72
2023/06/01 10:14:11;;;;;;;3.42;3.15;;;24.20;36.00;;;;;;4920193;29;20204;-72
2023/06/01 10:16:40;;;;;;;3.65;3.38;;;24.30;34.80;;;;;;4920305;29;20205;-71
2023/06/01 10:19:08;;;;;;;4.32;3.92;;;24.30;35.50;;;;;;4919387;29;20221;-71
2023/06/01 10:21:35;;;;;;;3.35;3.15;;;24.30;35.60;;;;;;4919709;29;20322;-71
2023/06/01 10:24:02;;;;;;;4.63;3.63;;;24.20;35.50;;;;;;4919650;29;20258;-71
2023/06/01 10:26:31;;;;;;;5.53;3.88;;;24.10;35.40;;;;;;4919718;29;20221;-71
2023/06/01 10:28:59;;;;;;;4.43;4.05;;;24.10;34.80;;;;;;4919604;29;20197;-71
2023/06/01 10:31:38;;;;;;;4.18;3.80;;;24.00;34.80;;;;;;4919324;29;20695;-71
2023/06/01 10:34:05;;;;;;;3.75;3.30;;;23.80;35.70;;;;;;4921711;29;20219;-71
2023/06/01 10:37:10;;;;;;;5.13;3.70;;;23.70;35.10;;;;;;4922898;29;20209;-72
2023/06/01 10:39:37;;;;;;;6.20;3.60;;;23.60;35.80;;;;;;4920776;29;20220;-71
2023/06/01 10:42:38;;;;;;;4.45;3.13;;;23.50;35.20;;;;;;4919325;29;20568;-71
2023/06/01 10:45:06;;;;;;;3.72;3.33;;;23.50;35.50;;;;;;4919234;29;20771;-71
2023/06/01 10:47:48;;;;;;;4.57;3.45;;;23.50;36.50;;;;;;4919351;29;20205;-72
2023/06/01 10:50:17;;;;;;;3.80;3.33;;;23.50;36.60;;;;;;4919490;29;20232;-72
2023/06/01 10:52:43;;;;;;;3.47;3.20;;;23.50;37.30;;;;;;4919147;29;20295;-72
2023/06/01 10:55:22;;;;;;;3.85;3.22;;;23.50;36.30;;;;;;4919281;29;20190;-72
2023/06/01 10:57:49;;;;;;;4.47;4.10;;;23.40;36.40;;;;;;4919410;29;20315;-70
2023/06/01 11:00:18;;;;;;;4.03;3.63;;;23.50;38.30;;;;;;4919032;29;20231;-70
2023/06/01 11:02:48;;;;;;;3.50;3.20;;;23.60;36.40;;;;;;4918507;29;20732;-70
2023/06/01 11:05:35;;;;;;;3.80;3.50;;;23.60;36.60;;;;;;4919364;29;20576;-70
2023/06/01 11:08:02;;;;;;;3.55;3.25;;;23.70;36.60;;;;;;4919087;29;20213;-69
2023/06/01 11:11:03;;;;;;;4.20;3.15;;;23.60;36.70;;;;;;4918837;29;20280;-70
2023/06/01 11:13:32;;;;;;;3.30;3.10;;;23.80;37.20;;;;;;4860592;29;20282;-69
2023/06/01 11:16:30;;;;;;;4.32;3.92;;;23.90;35.10;;;;;;4860515;29;20669;-69
2023/06/01 11:18:59;;;;;;;3.63;3.25;;;24.00;36.20;;;;;;4899783;29;20700;-69
2023/06/01 11:21:27;;;;;;;3.08;2.80;;;24.30;36.20;;;;;;4918541;29;20592;-69
2023/06/01 11:23:56;;;;;;;3.55;3.25;;;24.50;35.80;;;;;;4918533;29;20205;-69
2023/06/01 11:26:25;;;;;;;3.67;3.38;;;24.60;35.50;;;;;;4918581;29;20209;-69
2023/06/01 11:28:53;;;;;;;4.05;3.67;;;24.60;33.90;;;;;;4918516;29;20204;-69
2023/06/01 11:31:20;;;;;;;6.05;3.47;;;24.50;35.80;;;;;;4917576;29;20712;-71
2023/06/01 11:33:52;;;;;;;5.78;3.65;;;24.50;35.30;;;;;;4918593;29;20216;-71
2023/06/01 11:36:23;;;;;;;5.00;3.47;;;24.30;35.30;;;;;;4918567;29;20213;-70
2023/06/01 11:38:50;;;;;;;3.25;3.05;;;24.20;35.10;;;;;;4918371;29;20213;-72
2023/06/01 11:41:17;;;;;;;3.47;3.08;;;24.30;35.40;;;;;;4918248;29;20583;-72
2023/06/01 11:43:43;;;;;;;3.80;3.38;;;24.30;35.80;;;;;;4918117;29;20236;-72
2023/06/01 11:46:11;;;;;;;3.33;3.00;;;24.50;35.40;;;;;;4918034;29;20595;-72
2023/06/01 11:48:37;;;;;;;3.47;3.25;;;24.50;34.90;;;;;;4918448;29;20621;-70
2023/06/01 11:51:05;;;;;;;3.70;3.40;;;24.60;34.30;;;;;;4918295;29;20228;-70
2023/06/01 11:53:33;;;;;;;3.97;3.67;;;24.50;34.40;;;;;;4918379;29;20216;-70
2023/06/01 11:56:02;;;;;;;3.33;3.05;;;24.50;34.80;;;;;;4917819;29;20674;-70
2023/06/01 11:58:30;;;;;;;4.15;3.03;;;24.70;35.40;;;;;;4917610;29;20554;-69
2023/06/01 12:00:59;;;;;;;;;;;24.70;33.40;;;;;;4917846;29;20645;-69
2023/06/01 12:03:25;;;;;;;2.57;2.23;;;24.70;33.60;;;;;;4917870;29;20244;-69
2023/06/01 12:05:52;;;;;;;9.00;4.00;;;24.60;34.50;;;;;;4917314;29;20672;-69
2023/06/01 12:08:21;;;;;;;3.97;3.67;;;24.30;34.30;;;;;;4917734;29;20273;-68
2023/06/01 12:10:50;;;;;;;4.65;4.18;;;24.20;35.10;;;;;;4917504;29;20232;-69
2023/06/01 12:13:18;;;;;;;4.18;3.80;;;24.30;35.60;;;;;;4917655;29;20546;-69
2023/06/01 12:15:45;;;;;;;4.25;3.92;;;24.40;35.20;;;;;;4917405;29;20208;-69
2023/06/01 12:18:12;;;;;;;3.80;3.50;;;24.50;34.40;;;;;;4918163;29;20228;-70
2023/06/01 12:20:41;;;;;;;3.38;3.17;;;24.70;34.40;;;;;;4917573;29;20252;-70
2023/06/01 12:23:15;;;;;;;3.75;3.45;;;24.90;35.10;;;;;;4917650;29;20272;-70
2023/06/01 12:25:51;;;;;;;4.45;4.05;;;25.20;34.50;;;;;;4918093;29;20252;-68
2023/06/01 12:28:18;;;;;;;4.40;3.53;;;25.20;33.50;;;;;;4917653;29;20608;-68
2023/06/01 12:30:45;;;;;;;5.80;3.58;;;25.10;33.40;;;;;;4917222;29;20664;-71
2023/06/01 12:33:32;;;;;;;3.85;3.55;;;25.00;33.20;;;;;;4917483;29;20664;-71
2023/06/01 12:35:59;;;;;;;4.50;3.30;;;24.90;33.50;;;;;;4917765;29;20196;-71
2023/06/01 12:38:25;;;;;;;4.72;4.20;;;24.60;33.60;;;;;;4918379;29;20315;-70
2023/06/01 12:41:09;;;;;;;4.25;3.70;;;24.50;34.30;;;;;;4917725;29;20704;-69
2023/06/01 12:43:36;;;;;;;4.03;3.67;;;24.40;34.50;;;;;;4917894;29;20200;-69
2023/06/01 12:46:05;;;;;;;5.20;3.28;;;24.20;33.50;;;;;;4917640;29;20243;-69
2023/06/01 12:48:33;;;;;;;3.15;2.95;;;24.10;33.50;;;;;;4917613;29;20222;-69
2023/06/01 12:51:00;;;;;;;6.25;2.88;;;24.10;34.40;;;;;;4917380;29;20747;-70
2023/06/01 12:53:27;;;;;;;3.50;3.22;;;24.10;33.60;;;;;;4917771;29;20268;-70
2023/06/01 12:55:54;;;;;;;2.90;2.75;;;24.10;32.60;;;;;;4917750;29;20212;-69
2023/06/01 12:58:22;;;;;;;3.53;3.22;;;24.30;33.80;;;;;;4917579;29;20744;-70
2023/06/01 13:00:49;;;;;;;3.03;2.83;;;24.50;33.60;;;;;;4917337;29;20621;-72
2023/06/01 13:03:16;;;;;;;3.17;2.97;;;24.80;34.70;;;;;;4917695;29;20291;-69
2023/06/01 13:05:45;;;;;;;3.38;3.08;;;24.90;32.20;;;;;;4917444;29;20653;-69
2023/06/01 13:08:12;;;;;;;5.07;3.88;;;24.80;31.80;;;;;;4917519;29;20200;-72
2023/06/01 13:10:38;;;;;;;4.32;3.67;;;24.80;32.80;;;;;;4917968;29;20228;-70
2023/06/01 13:13:06;;;;;;;4.60;3.85;;;24.80;32.80;;;;;;4917417;29;20216;-71
2023/06/01 13:15:34;;;;;;;3.78;3.40;;;24.70;33.40;;;;;;4917404;29;20200;-71
2023/06/01 13:18:00;;;;;;;3.90;3.45;;;24.50;33.40;;;;;;4917373;29;20232;-71
2023/06/01 13:20:27;;;;;;;3.40;3.15;;;24.40;33.70;;;;;;4917196;29;20228;-70
2023/06/01 13:22:54;;;;;;;4.47;3.65;;;24.30;34.00;;;;;;4917165;29;20208;-68
2023/06/01 13:25:21;;;;;;;5.05;3.85;;;24.40;34.10;;;;;;4918282;29;20240;-68
2023/06/01 13:27:47;;;;;;;3.70;3.40;;;24.40;33.60;;;;;;4917039;29;20228;-68
2023/06/01 13:30:15;;;;;;;3.75;3.45;;;24.30;33.60;;;;;;4917219;29;20224;-68
2023/06/01 13:32:43;;;;;;;3.35;3.05;;;24.40;31.20;;;;;;4917224;29;20209;-68
2023/06/01 13:35:11;;;;;;;3.25;3.05;;;24.40;30.80;;;;;;4916986;29;20673;-68
2023/06/01 13:37:38;;;;;;;2.67;2.58;;;24.40;30.50;;;;;;4917162;29;20205;-69
2023/06/01 13:40:06;;;;;;;3.60;3.40;;;24.50;30.60;;;;;;4917070;29;20232;-69
2023/06/01 13:42:33;;;;;;;3.80;3.50;;;24.60;31.20;;;;;;4917344;29;20212;-69
2023/06/01 13:45:00;;;;;;;3.55;3.05;;;24.60;31.50;;;;;;4917688;29;20232;-69
2023/06/01 13:47:26;;;;;;;4.28;3.45;;;24.70;32.20;;;;;;4916902;29;20216;-69
2023/06/01 13:49:54;;;;;;;3.28;3.00;;;24.60;31.40;;;;;;4917118;29;20204;-69
2023/06/01 13:52:21;;;;;;;3.40;3.10;;;24.60;31.30;;;;;;4916899;29;20205;-69
2023/06/01 13:54:48;;;;;;;3.28;2.97;;;24.60;31.20;;;;;;4920176;29;20228;-69
2023/06/01 13:57:14;;;;;;;2.85;2.65;;;24.70;31.50;;;;;;4920450;29;20205;-69
2023/06/01 13:59:41;;;;;;;5.43;3.22;;;24.80;30.80;;;;;;4920723;29;20209;-69
2023/06/01 14:02:08;;;;;;;6.05;3.97;;;24.70;31.80;;;;;;4921053;29;20201;-70
2023/06/01 14:04:35;;;;;;;4.20;3.63;;;24.50;31.60;;;;;;4921227;29;20208;-68
2023/06/01 14:07:03;;;;;;;3.47;3.17;;;24.30;32.60;;;;;;4920946;29;20216;-69
2023/06/01 14:09:29;;;;;;;4.00;3.65;;;24.20;32.60;;;;;;4920966;29;20231;-70
2023/06/01 14:11:56;;;;;;;3.65;3.35;;;24.10;32.50;;;;;;4920977;29;20678;-69
2023/06/01 14:14:23;;;;;;;3.97;3.50;;;24.00;32.10;;;;;;4921891;29;20205;-69
2023/06/01 14:16:50;;;;;;;4.22;2.90;;;23.90;32.30;;;;;;4921305;29;20209;-69
2023/06/01 14:19:16;;;;;;;3.35;3.05;;;23.90;33.00;;;;;;4919760;29;20224;-69
2023/06/01 14:21:43;;;;;;;3.20;3.00;;;24.00;32.50;;;;;;4920131;29;20228;-69
2023/06/01 14:24:11;;;;;;;4.68;3.30;;;24.30;34.50;;;;;;4920369;29;20232;-69
2023/06/01 14:26:38;;;;;;;4.80;3.33;;;24.50;33.90;;;;;;4920200;29;20204;-69
2023/06/01 14:29:05;;;;;;;4.20;3.50;;;24.60;32.30;;;;;;4919871;29;20207;-69
2023/06/01 14:31:31;;;;;;;3.53;3.22;;;24.60;33.10;;;;;;4920029;29;20225;-69
2023/06/01 14:33:58;;;;;;;3.65;3.17;;;24.50;32.90;;;;;;4919969;29;20260;-70
2023/06/01 14:36:25;;;;;;;3.55;3.30;;;24.40;32.70;;;;;;4919748;29;20675;-70
2023/06/01 14:38:52;;;;;;;3.20;3.00;;;24.30;34.00;;;;;;4919762;29;20247;-70
2023/06/01 14:41:20;;;;;;;3.60;3.30;;;24.40;33.70;;;;;;4919719;29;20235;-70
2023/06/01 14:43:47;;;;;;;3.75;3.45;;;24.50;33.70;;;;;;4919878;29;20217;-70
2023/06/01 14:46:13;;;;;;;3.65;3.35;;;24.50;32.30;;;;;;4919599;29;20209;-70
2023/06/01 14:48:40;;;;;;;3.20;3.00;;;24.60;31.10;;;;;;4919088;29;20691;-70
2023/06/01 14:51:07;;;;;;;2.63;2.53;;;24.70;30.30;;;;;;4919203;29;20669;-69
2023/06/01 14:53:33;;;;;;;3.72;3.03;;;24.80;29.90;;;;;;4919203;29;20223;-69
2023/06/01 14:56:00;;;;;;;3.30;2.97;;;24.90;29.60;;;;;;4919058;29;20291;-69
2023/06/01 14:58:28;;;;;;;3.30;3.03;;;25.10;29.60;;;;;;4919126;29;20295;-69
2023/06/01 15:00:56;;;;;;;3.05;2.85;;;25.30;29.10;;;;;;4919000;29;20240;-68
2023/06/01 15:03:22;;;;;;;2.75;2.63;;;25.40;29.90;;;;;;4919038;29;20292;-69
2023/06/01 15:05:49;;;;;;;2.75;2.58;;;25.60;30.30;;;;;;4917699;29;20209;-69
2023/06/01 15:08:16;;;;;;;3.85;3.55;;;25.70;30.10;;;;;;4918608;29;20201;-69
2023/06/01 15:10:42;;;;;;;3.10;2.90;;;25.60;30.40;;;;;;4918547;29;20704;-69
2023/06/01 15:13:09;;;;;;;2.72;2.53;;;25.60;30.70;;;;;;4918779;29;20211;-69
2023/06/01 15:15:37;;;;;;;4.85;3.17;;;25.60;31.00;;;;;;4918831;29;20204;-70
2023/06/01 15:18:04;;;;;;;3.70;3.40;;;25.60;31.40;;;;;;4918758;29;20231;-69
2023/06/01 15:20:31;;;;;;;3.50;2.92;;;25.50;30.90;;;;;;4918501;29;20229;-69
2023/06/01 15:22:58;;;;;;;3.60;3.40;;;25.50;31.30;;;;;;4918875;29;20216;-69
2023/06/01 15:25:25;;;;;;;4.30;3.38;;;25.40;31.70;;;;;;4919140;29;20209;-69
2023/06/01 15:27:51;;;;;;;4.90;3.95;;;25.30;31.20;;;;;;4918880;29;20212;-69
2023/06/01 15:30:18;;;;;;;3.60;3.30;;;25.10;32.50;;;;;;4918342;29;20224;-69
2023/06/01 15:32:46;;;;;;;3.80;3.50;;;25.10;32.80;;;;;;4918528;29;20209;-68
2023/06/01 15:35:13;;;;;;;5.07;3.70;;;25.10;32.90;;;;;;4918431;29;20205;-68
2023/06/01 15:37:40;;;;;;;4.65;3.90;;;25.00;33.60;;;;;;4918054;29;20653;-68
2023/06/01 15:40:14;;;;;;;4.13;3.72;;;24.90;33.60;;;;;;4918370;29;20232;-68
2023/06/01 15:42:41;;;;;;;3.83;3.50;;;24.70;34.20;;;;;;4918288;29;20216;-68
2023/06/01 15:45:08;;;;;;;4.13;3.53;;;24.50;34.10;;;;;;4918368;29;20192;-68
2023/06/01 15:47:36;;;;;;;3.90;3.22;;;24.40;34.30;;;;;;4918011;29;20236;-68
2023/06/01 15:50:04;;;;;;;5.35;3.92;;;24.30;34.40;;;;;;4918251;29;20251;-68
2023/06/01 15:52:31;;;;;;;4.07;3.67;;;24.30;35.60;;;;;;4917728;29;20212;-68
2023/06/01 15:54:57;;;;;;;3.80;3.50;;;24.20;35.40;;;;;;4917807;29;20193;-68
2023/06/01 15:57:24;;;;;;;4.32;3.65;;;24.30;35.80;;;;;;4918448;29;20625;-68
2023/06/01 15:59:51;;;;;;;8.88;4.43;;;24.30;36.20;;;;;;4917819;29;20205;-68
2023/06/01 16:02:17;;;;;;;4.32;3.92;;;24.40;36.50;;;;;;4918097;29;20208;-68
2023/06/01 16:04:44;;;;;;;4.43;3.70;;;24.40;35.80;;;;;;4917543;29;20575;-66
2023/06/01 16:07:12;;;;;;;3.45;3.17;;;24.50;35.40;;;;;;4917796;29;20208;-67
2023/06/01 16:09:39;;;;;;;4.13;3.72;;;24.50;36.30;;;;;;4917767;29;20208;-67
2023/06/01 16:12:06;;;;;;;4.30;4.00;;;24.60;35.90;;;;;;4917584;29;20569;-68
2023/06/01 16:14:33;;;;;;;5.40;3.92;;;24.60;35.50;;;;;;4917313;29;20211;-67
2023/06/01 16:17:00;;;;;;;5.22;3.45;;;24.60;35.70;;;;;;4916949;29;20692;-67
2023/06/01 16:19:26;;;;;;;3.78;3.42;;;24.60;35.20;;;;;;4917971;29;20201;-67
2023/06/01 16:21:57;;;;;;;3.55;3.28;;;24.60;35.20;;;;;;4917086;29;20716;-67
2023/06/01 16:24:25;;;;;;;3.65;3.35;;;24.60;35.20;;;;;;4917583;29;20196;-67
2023/06/01 16:26:52;;;;;;;6.88;3.78;;;24.60;35.00;;;;;;4917765;29;20236;-67
2023/06/01 16:29:19;;;;;;;4.82;3.42;;;24.60;34.90;;;;;;4917494;29;20205;-67
2023/06/01 16:31:45;;;;;;;3.50;3.20;;;24.60;34.90;;;;;;4917488;29;20284;-67
2023/06/01 16:34:12;;;;;;;3.28;2.97;;;24.60;35.50;;;;;;4917444;29;20205;-67
2023/06/01 16:36:39;;;;;;;3.90;3.60;;;24.60;35.00;;;;;;4917078;29;20676;-67
2023/06/01 16:39:06;;;;;;;3.47;3.17;;;24.50;34.30;;;;;;4917502;29;20256;-68
2023/06/01 16:41:34;;;;;;;3.85;3.45;;;24.40;34.20;;;;;;4917077;29;20697;-68
2023/06/01 16:44:00;;;;;;;5.75;3.85;;;24.30;34.40;;;;;;4917444;29;20304;-68
2023/06/01 16:46:27;;;;;;;4.50;3.70;;;24.20;34.60;;;;;;4917184;29;20208;-68
2023/06/01 16:48:54;;;;;;;5.65;3.97;;;24.10;34.70;;;;;;4917141;29;20211;-68
2023/06/01 16:51:22;;;;;;;3.80;3.50;;;24.00;34.60;;;;;;4916806;29;20566;-68
2023/06/01 16:53:50;;;;;;;7.20;3.63;;;24.00;34.60;;;;;;4917142;29;20248;-68
2023/06/01 16:56:16;;;;;;;3.90;3.60;;;23.90;34.40;;;;;;4917056;29;20557;-69
2023/06/01 16:58:44;;;;;;;4.00;3.60;;;23.90;35.30;;;;;;4917296;29;20208;-69
2023/06/01 17:01:11;;;;;;;4.25;3.85;;;23.80;35.20;;;;;;4916920;29;20280;-69
2023/06/01 17:03:38;;;;;;;3.42;3.13;;;23.80;35.20;;;;;;4917014;29;20617;-68
2023/06/01 17:06:05;;;;;;;3.55;3.13;;;23.80;35.20;;;;;;4917251;29;20209;-69
2023/06/01 17:08:32;;;;;;;3.65;3.05;;;23.70;35.10;;;;;;4917068;29;20205;-68
2023/06/01 17:10:58;;;;;;;3.83;3.53;;;23.70;35.20;;;;;;4916981;29;20233;-69
2023/06/01 17:13:26;;;;;;;3.90;3.47;;;23.70;35.40;;;;;;4938959;23;20591;-70
2023/06/01 17:15:54;;;;;;;4.18;3.78;;;23.60;35.30;;;;;;4917756;29;20691;-70
2023/06/01 17:18:20;;;;;;;3.58;3.25;;;23.60;35.50;;;;;;4917918;29;20201;-70
2023/06/01 17:20:47;;;;;;;4.97;3.97;;;23.50;36.00;;;;;;4917294;29;20215;-68
2023/06/01 17:23:14;;;;;;;4.03;3.63;;;23.50;35.60;;;;;;4917095;29;20224;-70
2023/06/01 17:25:41;;;;;;;5.82;3.67;;;23.50;35.90;;;;;;4917025;29;20216;-73
2023/06/01 17:28:08;;;;;;;4.22;3.83;;;23.40;36.30;;;;;;4917603;29;20285;-72
2023/06/01 17:30:35;;;;;;;5.45;3.60;;;23.40;37.00;;;;;;4921142;29;20220;-71
2023/06/01 17:33:03;;;;;;;5.38;4.10;;;23.40;36.40;;;;;;4920966;29;20252;-71
2023/06/01 17:35:29;;;;;;;5.72;4.10;;;23.30;36.50;;;;;;4920792;29;20227;-69
2023/06/01 17:37:56;;;;;;;5.82;3.35;;;23.10;35.60;;;;;;4920830;29;20272;-72
2023/06/01 17:40:23;;;;;;;5.68;4.03;;;23.00;36.20;;;;;;4922057;29;20216;-72
2023/06/01 17:42:50;;;;;;;3.47;3.17;;;22.90;35.70;;;;;;4921327;29;20211;-71
2023/06/01 17:45:17;;;;;;;4.18;3.78;;;22.80;36.00;;;;;;4920488;29;20205;-73